Time;durP1;ratioP1;P1;durP2;ratioP2;P2;SDS_P1;SDS_P2;PMS_P1;PMS_P2;Temp;Humidity;BMP_temperature;BMP_pressure;BME280_temperature;BME280_humidity;BME280_pressure;Samples;Min_cycle;Max_cycle;Signal;HPM_P1;HPM_P2
2022/10/23 00:01:25;;;;;;;5.53;3.23;;;;;;;20.88;69.07;100282.63;4955932;28;20179;-68
2022/10/23 00:03:51;;;;;;;5.37;2.53;;;;;;;20.87;68.65;100284.66;4989241;28;20261;-68
2022/10/23 00:06:17;;;;;;;5.97;2.40;;;;;;;20.89;68.34;100287.16;4972341;28;20480;-68
2022/10/23 00:08:43;;;;;;;6.23;2.70;;;;;;;20.89;68.85;100281.41;4939705;28;20410;-68
2022/10/23 00:11:12;;;;;;;3.90;2.60;;;;;;;20.88;68.62;100274.84;4971363;28;20178;-68
2022/10/23 00:13:38;;;;;;;5.93;3.00;;;;;;;20.90;68.78;100280.22;4956616;28;20185;-68
2022/10/23 00:16:04;;;;;;;4.67;2.77;;;;;;;20.87;68.64;100273.19;4941559;28;20913;-68
2022/10/23 00:18:29;;;;;;;5.90;2.80;;;;;;;20.86;68.34;100265.81;4974520;28;20213;-68
2022/10/23 00:20:55;;;;;;;4.33;2.70;;;;;;;20.88;68.40;100265.41;4958275;28;20178;-68
2022/10/23 00:23:21;;;;;;;4.47;2.50;;;;;;;20.87;68.64;100261.72;4942923;28;20193;-68
2022/10/23 00:25:46;;;;;;;5.70;2.50;;;;;;;20.90;68.64;100260.97;4973861;28;20422;-68
2022/10/23 00:28:11;;;;;;;4.27;2.47;;;;;;;20.88;68.40;100259.69;4989423;28;20179;-68
2022/10/23 00:30:37;;;;;;;4.20;2.83;;;;;;;20.89;68.61;100258.44;4972697;28;20198;-68
2022/10/23 00:33:02;;;;;;;5.60;2.83;;;;;;;20.86;68.83;100254.34;4992052;28;20214;-68
2022/10/23 00:35:28;;;;;;;4.33;2.30;;;;;;;20.87;68.66;100255.97;4990875;28;20170;-68
2022/10/23 00:37:53;;;;;;;3.97;2.67;;;;;;;20.86;68.57;100260.06;4990689;28;20186;-68
2022/10/23 00:40:19;;;;;;;4.00;2.67;;;;;;;20.88;68.53;100265.41;4959460;28;20194;-68
2022/10/23 00:42:44;;;;;;;5.37;2.30;;;;;;;20.88;68.40;100266.22;4990184;28;20163;-68
2022/10/23 00:45:16;;;;;;;7.47;2.57;;;;;;;20.88;68.41;100268.28;4988901;28;20171;-68
2022/10/23 00:47:42;;;;;;;4.27;2.73;;;;;;;20.87;68.48;100266.66;4954455;28;20191;-68
2022/10/23 00:50:07;;;;;;;4.00;2.47;;;;;;;20.86;68.54;100256.38;4960931;28;20460;-68
2022/10/23 00:52:34;;;;;;;3.20;2.13;;;;;;;20.85;68.31;100249.81;4972790;28;20184;-68
2022/10/23 00:54:59;;;;;;;3.20;2.13;;;;;;;20.86;68.63;100253.50;4989988;28;20166;-68
2022/10/23 00:57:25;;;;;;;4.90;2.80;;;;;;;20.84;68.70;100253.91;4988473;28;20425;-68
2022/10/23 00:59:50;;;;;;;4.80;2.60;;;;;;;20.85;68.79;100251.84;4989104;28;20166;-68
2022/10/23 01:02:15;;;;;;;3.90;2.27;;;;;;;20.85;68.76;100258.44;4980119;28;20183;-68
2022/10/23 01:04:41;;;;;;;5.03;2.87;;;;;;;20.85;68.68;100248.97;4968496;28;20233;-68
2022/10/23 01:07:09;;;;;;;3.80;2.30;;;;;;;20.84;68.63;100247.34;4971889;28;20178;-68
2022/10/23 01:09:53;;;;;;;5.43;2.67;;;;;;;20.85;68.44;100246.13;4988114;28;20302;-68
2022/10/23 01:12:32;;;;;;;4.93;3.13;;;;;;;20.86;68.48;100248.59;4990480;28;20809;-68
2022/10/23 01:14:58;;;;;;;5.07;2.83;;;;;;;20.84;68.80;100245.31;4987233;28;20413;-68
2022/10/23 01:17:29;;;;;;;7.90;2.80;;;;;;;20.84;68.98;100250.22;4971037;28;20441;-68
2022/10/23 01:20:26;;;;;;;4.73;2.83;;;;;;;20.83;68.41;100255.13;4955663;28;20194;-68
2022/10/23 01:23:29;;;;;;;5.20;2.60;;;;;;;20.85;68.26;100249.81;4971073;28;20818;-68
2022/10/23 01:26:12;;;;;;;4.20;2.20;;;;;;;20.82;68.52;100241.19;4986525;28;20417;-68
2022/10/23 01:29:23;;;;;;;3.97;2.50;;;;;;;20.84;68.85;100228.09;4973204;28;20422;-68
2022/10/23 01:32:12;;;;;;;4.93;2.43;;;;;;;20.82;68.67;100230.53;4880588;29;20444;-68
2022/10/23 01:34:47;;;;;;;4.07;2.50;;;;;;;20.83;68.80;100234.22;4953389;29;20802;-68
2022/10/23 01:37:14;;;;;;;4.87;2.63;;;;;;;20.84;68.68;100235.88;4969019;29;20403;-68
2022/10/23 01:39:45;;;;;;;5.43;2.63;;;;;;;20.83;68.25;100234.22;4953016;29;20475;-68
2022/10/23 01:42:19;;;;;;;3.70;2.30;;;;;;;20.82;68.66;100236.25;4951403;29;20820;-68
2022/10/23 01:44:47;;;;;;;4.17;2.30;;;;;;;20.82;68.69;100239.13;4939665;28;20425;-68
2022/10/23 01:47:15;;;;;;;4.73;2.47;;;;;;;20.80;68.31;100227.22;4955600;28;20821;-68
2022/10/23 01:49:41;;;;;;;5.00;2.60;;;;;;;20.83;68.54;100235.03;4953648;28;20547;-69
2022/10/23 01:52:08;;;;;;;4.13;2.07;;;;;;;20.81;68.69;100216.56;4969538;28;20441;-69
2022/10/23 01:54:35;;;;;;;2.90;2.10;;;;;;;20.83;68.32;100214.13;4952606;28;20229;-68
2022/10/23 01:57:00;;;;;;;5.27;2.23;;;;;;;20.79;68.14;100214.13;4952836;28;20437;-69
2022/10/23 01:59:35;;;;;;;4.03;2.73;;;;;;;20.80;68.50;100215.75;4986230;28;20398;-69
2022/10/23 02:02:01;;;;;;;4.37;2.60;;;;;;;20.82;68.61;100206.75;4952714;28;20161;-69
2022/10/23 02:04:30;;;;;;;3.20;2.07;;;;;;;20.81;68.61;100205.09;4969330;28;20454;-68
2022/10/23 02:06:55;;;;;;;3.43;2.43;;;;;;;20.80;68.02;100197.72;4953833;28;20165;-69
2022/10/23 02:09:21;;;;;;;3.33;2.37;;;;;;;20.80;68.80;100201.41;4986555;28;20453;-69
2022/10/23 02:11:52;;;;;;;3.50;2.30;;;;;;;20.80;68.96;100194.84;4968832;28;20178;-68
2022/10/23 02:14:33;;;;;;;3.37;2.00;;;;;;;20.79;68.62;100182.56;4953685;28;20159;-68
2022/10/23 02:17:07;;;;;;;4.07;2.17;;;;;;;20.79;68.53;100176.81;4984857;28;20421;-68
2022/10/23 02:19:36;;;;;;;3.33;2.50;;;;;;;20.80;68.48;100183.34;4952379;28;20432;-68
2022/10/23 02:22:35;;;;;;;3.37;2.10;;;;;;;20.78;69.15;100172.28;4984940;28;20437;-68
2022/10/23 02:25:08;;;;;;;2.87;2.10;;;;;;;20.79;69.07;100184.59;4927056;28;20509;-68
2022/10/23 02:28:01;;;;;;;3.83;2.30;;;;;;;20.78;68.17;100178.00;4952968;28;20565;-68
2022/10/23 02:30:27;;;;;;;3.13;2.10;;;;;;;20.80;68.27;100177.63;4965722;28;20897;-68
2022/10/23 02:32:52;;;;;;;3.70;2.23;;;;;;;20.78;68.48;100178.00;4968747;28;20410;-68
2022/10/23 02:35:19;;;;;;;4.03;2.57;;;;;;;20.77;68.72;100182.09;4951865;28;20175;-68
2022/10/23 02:37:54;;;;;;;3.37;1.90;;;;;;;20.80;68.53;100183.34;4952453;28;20178;-68
2022/10/23 02:40:19;;;;;;;3.23;2.10;;;;;;;20.78;68.55;100180.88;4968888;28;20420;-68
2022/10/23 02:42:51;;;;;;;2.70;2.20;;;;;;;20.79;68.45;100176.81;4935350;29;20422;-68
2022/10/23 02:45:22;;;;;;;3.10;1.90;;;;;;;20.76;68.37;100186.22;4932047;29;20185;-68
2022/10/23 02:47:48;;;;;;;3.87;2.17;;;;;;;20.78;68.87;100180.88;4974980;28;20422;-68
2022/10/23 02:50:53;;;;;;;3.53;2.33;;;;;;;20.76;68.71;100180.47;4986380;28;21090;-68
2022/10/23 02:53:32;;;;;;;3.17;2.10;;;;;;;20.77;68.40;100167.75;4935300;29;20197;-68
2022/10/23 02:56:34;;;;;;;3.50;2.07;;;;;;;20.77;68.59;100172.69;4947442;29;20421;-68
2022/10/23 02:59:15;;;;;;;3.30;2.10;;;;;;;20.75;68.52;100158.75;4963825;29;20514;-68
2022/10/23 03:01:47;;;;;;;5.20;1.80;;;;;;;20.76;68.48;100151.78;4932696;29;20417;-69
2022/10/23 03:04:12;;;;;;;3.90;2.20;;;;;;;20.77;68.50;100144.81;4975049;28;20473;-68
2022/10/23 03:06:38;;;;;;;3.43;2.27;;;;;;;20.75;68.63;100141.53;4949947;28;20516;-68
2022/10/23 03:09:05;;;;;;;4.00;2.30;;;;;;;20.75;68.67;100141.53;4950282;28;20544;-69
2022/10/23 03:11:31;;;;;;;3.30;1.93;;;;;;;20.76;68.56;100139.47;4984726;28;20522;-68
2022/10/23 03:13:56;;;;;;;3.70;1.90;;;;;;;20.75;68.54;100144.41;4985897;28;20417;-68
2022/10/23 03:16:22;;;;;;;4.20;2.20;;;;;;;20.76;68.72;100146.03;5003331;28;20565;-68
2022/10/23 03:18:47;;;;;;;2.90;1.83;;;;;;;20.77;68.64;100144.00;4973792;28;20655;-68
2022/10/23 03:21:12;;;;;;;3.17;2.07;;;;;;;20.76;68.72;100140.31;4952325;28;20168;-68
2022/10/23 03:23:38;;;;;;;3.20;2.20;;;;;;;20.76;68.65;100134.56;4971418;28;20170;-68
2022/10/23 03:26:03;;;;;;;3.23;2.30;;;;;;;20.75;68.61;100144.41;4953887;28;20175;-68
2022/10/23 03:28:29;;;;;;;3.20;1.90;;;;;;;20.76;68.29;100128.00;4953109;28;20220;-68
2022/10/23 03:30:55;;;;;;;3.37;2.50;;;;;;;20.76;68.62;100134.56;4969059;28;20191;-68
2022/10/23 03:33:20;;;;;;;3.07;1.90;;;;;;;20.74;68.46;100122.69;5000925;28;20158;-68
2022/10/23 03:35:47;;;;;;;3.00;2.07;;;;;;;20.74;68.80;100122.69;4984721;28;20937;-69
2022/10/23 03:38:12;;;;;;;3.90;1.97;;;;;;;20.77;68.71;100124.72;4983933;28;20257;-69
2022/10/23 03:40:38;;;;;;;4.90;2.27;;;;;;;20.78;68.24;100134.16;4985106;28;20414;-68
2022/10/23 03:43:03;;;;;;;3.43;2.00;;;;;;;20.77;68.27;100147.69;4967638;28;20182;-69
2022/10/23 03:45:29;;;;;;;4.10;2.00;;;;;;;20.75;68.68;100138.66;4967060;28;20197;-68
2022/10/23 03:47:55;;;;;;;3.20;2.17;;;;;;;20.76;68.52;100143.16;4982389;28;20218;-69
2022/10/23 03:50:20;;;;;;;3.80;2.07;;;;;;;20.75;68.69;100141.53;4934768;28;20456;-68
2022/10/23 03:52:46;;;;;;;5.07;2.10;;;;;;;20.76;68.29;100137.44;4966858;28;20185;-69
2022/10/23 03:55:11;;;;;;;4.00;2.00;;;;;;;20.77;68.56;100129.66;4966625;28;20723;-68
2022/10/23 03:57:37;;;;;;;3.60;2.10;;;;;;;20.76;68.59;100143.16;4931459;29;20215;-69
2022/10/23 04:00:03;;;;;;;3.10;1.80;;;;;;;20.77;68.54;100147.69;4931233;29;20182;-68
2022/10/23 04:02:29;;;;;;;4.00;2.10;;;;;;;20.77;68.54;100147.69;4948261;29;20318;-69
2022/10/23 04:04:54;;;;;;;3.43;2.13;;;;;;;20.78;68.38;100149.31;4950655;28;20469;-68
2022/10/23 04:07:20;;;;;;;2.30;1.70;;;;;;;20.79;68.36;100150.16;4967419;28;20178;-68
2022/10/23 04:09:45;;;;;;;3.17;1.73;;;;;;;20.76;68.32;100142.34;4967253;28;20195;-68
2022/10/23 04:12:10;;;;;;;3.07;1.90;;;;;;;20.75;68.64;100138.66;4982917;28;20244;-68
2022/10/23 04:14:36;;;;;;;3.00;2.00;;;;;;;20.74;68.27;100139.06;4984104;28;20676;-68
2022/10/23 04:17:01;;;;;;;2.43;1.57;;;;;;;20.74;68.57;100147.66;4966873;28;20430;-68
2022/10/23 04:19:27;;;;;;;2.73;1.57;;;;;;;20.76;68.47;100139.47;4952007;28;20186;-69
2022/10/23 04:21:52;;;;;;;2.67;1.47;;;;;;;20.75;68.98;100143.56;4949677;28;20182;-69
2022/10/23 04:24:18;;;;;;;2.60;1.80;;;;;;;20.74;68.32;100139.88;4963731;28;20181;-68
2022/10/23 04:26:43;;;;;;;2.53;1.77;;;;;;;20.75;68.79;100127.19;4947974;28;20178;-69
2022/10/23 04:29:08;;;;;;;2.73;1.70;;;;;;;20.76;68.26;100133.72;4948197;28;20194;-69
2022/10/23 04:31:34;;;;;;;4.87;2.43;;;;;;;20.76;68.09;100151.78;4932399;28;20770;-69
2022/10/23 04:33:59;;;;;;;3.10;1.70;;;;;;;20.74;68.80;100139.88;4964842;28;20610;-69
2022/10/23 04:36:25;;;;;;;3.10;2.00;;;;;;;20.74;68.88;100133.31;4948566;28;20183;-69
2022/10/23 04:38:52;;;;;;;2.80;1.63;;;;;;;20.74;68.55;100136.19;4965320;28;20175;-69
2022/10/23 04:41:17;;;;;;;3.33;2.00;;;;;;;20.76;68.53;100134.56;4965706;28;20178;-69
2022/10/23 04:43:43;;;;;;;3.00;1.70;;;;;;;20.76;68.45;100128.00;4948296;28;20426;-69
2022/10/23 04:46:08;;;;;;;2.50;1.63;;;;;;;20.76;68.21;100119.38;4933601;28;20178;-69
2022/10/23 04:48:33;;;;;;;3.50;1.90;;;;;;;20.75;68.55;100123.47;4973345;28;20181;-69
2022/10/23 04:51:00;;;;;;;2.80;1.80;;;;;;;20.74;68.63;100113.22;4983096;28;20198;-69
2022/10/23 04:53:26;;;;;;;2.53;1.70;;;;;;;20.75;68.33;100115.72;4967221;28;20170;-69
2022/10/23 04:55:52;;;;;;;4.33;1.90;;;;;;;20.74;68.40;100127.56;4967198;28;20437;-68
2022/10/23 04:58:18;;;;;;;4.23;2.00;;;;;;;20.75;68.52;100132.91;4967529;28;20261;-69
2022/10/23 05:00:44;;;;;;;2.73;1.60;;;;;;;20.76;68.62;100123.09;4964422;28;20416;-69
2022/10/23 05:03:09;;;;;;;2.70;1.77;;;;;;;20.76;68.20;100114.47;4978699;28;20561;-69
2022/10/23 05:05:35;;;;;;;3.57;2.30;;;;;;;20.75;68.35;100129.22;4963683;28;20234;-69
2022/10/23 05:08:00;;;;;;;3.13;1.87;;;;;;;20.74;68.53;100116.94;4964092;28;20178;-69
2022/10/23 05:10:26;;;;;;;2.50;1.60;;;;;;;20.76;68.50;100100.13;4947590;28;20214;-69
2022/10/23 05:12:51;;;;;;;2.67;1.70;;;;;;;20.76;68.20;100110.78;4980019;28;20177;-69
2022/10/23 05:15:17;;;;;;;3.97;2.30;;;;;;;20.75;68.34;100104.22;4962819;28;20186;-69
2022/10/23 05:17:43;;;;;;;2.83;1.83;;;;;;;20.75;68.75;100092.75;4946510;28;20221;-69
2022/10/23 05:20:11;;;;;;;3.03;1.80;;;;;;;20.75;68.27;100106.25;4962931;28;20162;-69
2022/10/23 05:22:37;;;;;;;2.87;1.80;;;;;;;20.76;68.40;100100.13;4950251;28;20202;-69
2022/10/23 05:25:03;;;;;;;2.47;1.50;;;;;;;20.75;68.77;100089.88;4980003;28;20441;-69
2022/10/23 05:27:28;;;;;;;3.60;2.00;;;;;;;20.75;68.69;100087.00;4978563;28;20605;-69
2022/10/23 05:29:54;;;;;;;2.60;1.63;;;;;;;20.77;68.11;100090.28;4995063;28;20446;-69
2022/10/23 05:32:19;;;;;;;2.73;1.60;;;;;;;20.76;68.38;100093.56;4978650;28;20210;-69
2022/10/23 05:34:45;;;;;;;3.80;1.80;;;;;;;20.76;68.12;100091.53;4978305;28;20175;-68
2022/10/23 05:37:11;;;;;;;2.63;1.80;;;;;;;20.75;68.64;100081.28;4961821;28;20543;-69
2022/10/23 05:39:40;;;;;;;3.33;1.97;;;;;;;20.75;68.64;100078.41;4945632;28;20167;-69
2022/10/23 05:42:05;;;;;;;3.20;2.00;;;;;;;20.74;68.38;100076.78;4961963;28;20473;-69
2022/10/23 05:44:31;;;;;;;3.30;2.00;;;;;;;20.74;68.62;100079.63;4945273;28;20398;-69
2022/10/23 05:46:56;;;;;;;3.30;1.50;;;;;;;20.74;68.52;100084.53;4945135;28;20198;-69
2022/10/23 05:49:25;;;;;;;2.23;1.70;;;;;;;20.73;68.59;100098.06;4961129;28;20210;-69
2022/10/23 05:51:50;;;;;;;2.30;1.67;;;;;;;20.76;68.52;100100.13;4961612;28;20194;-69
2022/10/23 05:54:16;;;;;;;3.57;1.97;;;;;;;20.75;68.58;100089.88;4961793;28;20414;-68
2022/10/23 05:56:41;;;;;;;2.80;1.63;;;;;;;20.74;68.58;100082.50;4961089;28;20572;-69
2022/10/23 05:59:07;;;;;;;3.50;1.87;;;;;;;20.73;68.56;100089.44;4929173;28;20189;-69
2022/10/23 06:01:32;;;;;;;3.00;1.67;;;;;;;20.77;68.80;100089.50;4945537;28;20532;-69
2022/10/23 06:03:58;;;;;;;3.00;1.80;;;;;;;20.76;68.34;100082.09;4944966;28;20205;-69
2022/10/23 06:06:24;;;;;;;4.27;2.50;;;;;;;20.76;68.46;100077.19;4940776;29;20596;-68
2022/10/23 06:08:49;;;;;;;2.53;1.57;;;;;;;20.75;68.34;100061.19;4956610;29;20498;-69
2022/10/23 06:11:15;;;;;;;3.40;2.03;;;;;;;20.74;68.50;100073.91;4954585;29;20182;-69
2022/10/23 06:13:44;;;;;;;2.50;1.70;;;;;;;20.78;68.40;100073.91;4955136;29;20183;-68
2022/10/23 06:16:17;;;;;;;3.67;1.70;;;;;;;20.75;68.54;100087.00;4937437;29;20626;-69
2022/10/23 06:18:43;;;;;;;3.00;1.80;;;;;;;20.76;68.47;100080.06;4933526;29;20497;-69
2022/10/23 06:21:09;;;;;;;2.80;1.77;;;;;;;20.76;68.40;100088.66;4949199;28;20431;-68
2022/10/23 06:23:35;;;;;;;2.60;1.70;;;;;;;20.76;68.43;100071.44;4937038;29;20171;-69
2022/10/23 06:26:00;;;;;;;2.90;1.77;;;;;;;20.78;68.26;100076.78;4954969;29;20263;-68
2022/10/23 06:28:26;;;;;;;3.70;1.80;;;;;;;20.78;68.37;100068.97;4937278;29;20924;-68
2022/10/23 06:30:51;;;;;;;2.67;1.60;;;;;;;20.78;68.57;100065.31;4921160;29;20309;-69
2022/10/23 06:33:17;;;;;;;2.03;1.23;;;;;;;20.78;68.33;100074.72;4953333;29;20195;-69
2022/10/23 06:35:43;;;;;;;2.50;1.80;;;;;;;20.78;68.25;100063.25;4953834;28;20191;-69
2022/10/23 06:38:09;;;;;;;2.23;1.40;;;;;;;20.77;68.09;100078.00;4957183;28;20187;-68
2022/10/23 06:40:35;;;;;;;2.47;1.57;;;;;;;20.76;68.51;100080.06;4953651;29;20194;-68
2022/10/23 06:43:00;;;;;;;2.73;1.60;;;;;;;20.78;68.47;100079.66;4936408;29;20810;-68
2022/10/23 06:45:26;;;;;;;2.30;1.47;;;;;;;20.76;68.56;100082.91;4942767;29;20637;-68
2022/10/23 06:47:51;;;;;;;2.43;1.67;;;;;;;20.76;68.22;100076.34;4957318;28;20187;-68
2022/10/23 06:50:17;;;;;;;2.07;1.50;;;;;;;20.75;68.51;100092.75;4939432;29;20261;-69
2022/10/23 06:52:42;;;;;;;2.87;1.87;;;;;;;20.76;68.47;100087.81;4954390;29;20171;-68
2022/10/23 06:55:08;;;;;;;2.80;1.63;;;;;;;20.74;68.41;100085.38;4954876;28;20194;-69
2022/10/23 06:57:33;;;;;;;2.93;1.70;;;;;;;20.75;68.23;100084.16;4941791;29;20178;-69
2022/10/23 06:59:59;;;;;;;3.00;1.60;;;;;;;20.75;68.69;100089.88;4944133;29;20714;-69
2022/10/23 07:02:24;;;;;;;2.10;1.50;;;;;;;20.77;68.09;100093.16;4932797;29;20816;-69
2022/10/23 07:04:50;;;;;;;3.80;2.17;;;;;;;20.76;68.34;100090.69;4956600;29;20683;-69
2022/10/23 07:07:15;;;;;;;3.53;1.73;;;;;;;20.76;68.32;100094.41;4946731;28;20222;-68
2022/10/23 07:09:40;;;;;;;2.90;1.33;;;;;;;20.77;68.28;100104.63;4942862;29;20574;-68
2022/10/23 07:12:09;;;;;;;2.67;1.70;;;;;;;20.77;68.40;100098.09;4952397;29;20559;-69
2022/10/23 07:14:34;;;;;;;3.33;1.60;;;;;;;20.77;68.20;100098.91;4945604;29;20644;-69
2022/10/23 07:17:00;;;;;;;3.00;1.63;;;;;;;20.77;68.41;100098.91;4948550;29;20438;-68
2022/10/23 07:19:25;;;;;;;3.40;1.70;;;;;;;20.79;68.22;100104.25;4950300;28;20194;-68
2022/10/23 07:21:51;;;;;;;3.07;1.87;;;;;;;20.78;68.14;100083.31;4918805;29;20550;-68
2022/10/23 07:24:16;;;;;;;2.40;1.63;;;;;;;20.78;68.42;100097.66;4928504;28;20192;-68
2022/10/23 07:26:43;;;;;;;2.30;1.50;;;;;;;20.78;68.34;100094.81;4949308;29;20219;-68
2022/10/23 07:29:09;;;;;;;3.47;1.70;;;;;;;20.78;68.44;100065.31;4960084;28;20279;-68
2022/10/23 07:31:35;;;;;;;2.43;1.70;;;;;;;20.75;68.25;100081.28;4939815;29;20459;-68
2022/10/23 07:34:00;;;;;;;3.43;1.90;;;;;;;20.79;68.33;100087.88;4955345;28;20443;-68
2022/10/23 07:36:25;;;;;;;2.30;1.37;;;;;;;20.79;67.99;100082.13;4910291;29;20202;-68
2022/10/23 07:38:51;;;;;;;3.17;1.80;;;;;;;20.79;68.36;100084.16;4941017;29;20191;-68
2022/10/23 07:41:16;;;;;;;2.83;1.70;;;;;;;20.79;68.38;100069.81;4941980;29;20179;-68
2022/10/23 07:43:42;;;;;;;2.67;1.67;;;;;;;20.80;68.37;100085.81;4942901;29;20235;-68
2022/10/23 07:46:08;;;;;;;2.97;1.40;;;;;;;20.81;67.96;100081.69;4939132;29;20258;-68
2022/10/23 07:48:37;;;;;;;3.10;1.30;;;;;;;20.80;68.05;100089.50;4941865;28;20323;-68
2022/10/23 07:51:09;;;;;;;2.47;1.47;;;;;;;20.80;68.04;100088.66;4944403;29;21025;-69
2022/10/23 07:53:35;;;;;;;3.53;1.40;;;;;;;20.83;67.98;100094.41;4922936;29;20450;-68
2022/10/23 07:56:01;;;;;;;2.60;1.67;;;;;;;20.80;68.44;100097.28;4942683;29;20439;-68
2022/10/23 07:58:27;;;;;;;3.20;1.70;;;;;;;20.84;68.47;100098.13;4934761;29;20195;-68
2022/10/23 08:00:57;;;;;;;2.50;1.60;;;;;;;20.81;68.33;100101.78;4942718;28;20423;-68
2022/10/23 08:03:26;;;;;;;2.77;1.90;;;;;;;20.81;68.19;100096.03;4947912;29;20263;-68
2022/10/23 08:05:52;;;;;;;3.40;1.50;;;;;;;20.81;68.55;100096.03;4957035;28;20553;-68
2022/10/23 08:08:18;;;;;;;2.57;1.60;;;;;;;20.81;68.55;100105.50;4958057;28;20439;-68
2022/10/23 08:10:45;;;;;;;2.60;1.70;;;;;;;20.83;67.74;100102.22;4944605;28;20486;-68
2022/10/23 08:13:11;;;;;;;2.50;1.73;;;;;;;20.83;68.19;100103.03;4952307;28;20293;-68
2022/10/23 08:15:37;;;;;;;2.93;1.80;;;;;;;20.84;68.07;100107.56;4926967;28;20470;-68
2022/10/23 08:18:02;;;;;;;2.80;1.97;;;;;;;20.85;68.03;100097.72;4948325;28;21008;-68
2022/10/23 08:20:28;;;;;;;2.57;1.40;;;;;;;20.84;68.18;100080.91;4941589;28;20185;-68
2022/10/23 08:22:54;;;;;;;2.73;1.70;;;;;;;20.81;68.16;100085.41;4959090;28;20785;-68
2022/10/23 08:25:19;;;;;;;3.03;1.60;;;;;;;20.81;68.36;100079.66;4943719;28;20363;-69
2022/10/23 08:27:45;;;;;;;4.30;1.87;;;;;;;20.84;67.93;100092.38;4947483;28;20832;-68
2022/10/23 08:30:11;;;;;;;2.80;1.70;;;;;;;20.86;67.99;100110.84;4945074;28;20218;-68
2022/10/23 08:32:36;;;;;;;2.93;2.00;;;;;;;20.86;68.21;100102.25;4926483;28;20187;-68
2022/10/23 08:35:01;;;;;;;2.77;1.50;;;;;;;20.85;68.37;100097.72;4949583;28;20250;-67
2022/10/23 08:37:27;;;;;;;3.53;2.00;;;;;;;20.87;67.93;100097.34;4960685;28;20186;-74
2022/10/23 08:39:54;;;;;;;2.40;1.53;;;;;;;20.84;67.82;100078.88;4955146;28;20191;-74
2022/10/23 08:42:22;;;;;;;2.30;1.50;;;;;;;20.83;67.98;100077.19;4941869;28;20534;-72
2022/10/23 08:45:28;;;;;;;3.20;1.63;;;;;;;20.85;67.75;100082.56;4924476;28;20434;-69
2022/10/23 08:47:54;;;;;;;2.20;1.63;;;;;;;20.84;68.29;100066.56;4865411;29;20919;-70
2022/10/23 08:50:29;;;;;;;2.67;1.43;;;;;;;20.87;68.26;100060.84;4937645;28;21001;-70
2022/10/23 08:53:15;;;;;;;1.93;1.07;;;;;;;20.86;68.08;100059.19;4958199;28;20834;-70
2022/10/23 08:56:10;;;;;;;2.80;1.37;;;;;;;20.87;68.02;100043.63;4943186;28;20439;-70
2022/10/23 08:58:48;;;;;;;2.70;1.80;;;;;;;20.88;68.11;100039.50;4944865;28;20534;-70
2022/10/23 09:01:37;;;;;;;2.60;1.60;;;;;;;20.85;67.87;100026.00;4939234;28;20426;-70
2022/10/23 09:04:03;;;;;;;3.30;1.70;;;;;;;20.87;68.13;100014.91;4958087;28;20458;-70
2022/10/23 09:06:34;;;;;;;2.73;1.60;;;;;;;20.86;68.08;100024.75;4924575;28;20510;-70
2022/10/23 09:09:21;;;;;;;3.07;1.67;;;;;;;20.86;67.88;100026.78;4934758;28;20578;-70
2022/10/23 09:11:52;;;;;;;2.77;1.57;;;;;;;20.86;67.98;100030.50;4955868;28;20413;-70
2022/10/23 09:14:47;;;;;;;2.80;1.67;;;;;;;20.87;67.85;100026.41;4957602;28;20426;-70
2022/10/23 09:17:21;;;;;;;2.13;1.23;;;;;;;20.88;68.04;100027.22;4957553;28;20993;-70
2022/10/23 09:19:48;;;;;;;2.17;1.53;;;;;;;20.86;68.25;100030.50;4955182;28;20473;-70
2022/10/23 09:22:13;;;;;;;2.40;1.30;;;;;;;20.87;67.89;100014.91;4945774;28;20429;-70
2022/10/23 09:24:41;;;;;;;1.90;1.07;;;;;;;20.87;68.14;100017.78;4928441;28;20545;-70
2022/10/23 09:27:09;;;;;;;2.40;1.50;;;;;;;20.88;68.46;100005.06;4955297;28;20242;-70
2022/10/23 09:29:34;;;;;;;2.37;1.30;;;;;;;20.87;67.85;100014.91;4930522;28;20454;-70
2022/10/23 09:32:04;;;;;;;2.83;1.50;;;;;;;20.91;67.91;100009.22;4940541;28;20454;-69
2022/10/23 09:34:31;;;;;;;2.20;1.43;;;;;;;20.90;68.36;100001.84;4915808;28;20272;-70
2022/10/23 09:37:16;;;;;;;2.40;1.60;;;;;;;20.91;68.01;100009.22;4957791;28;20414;-70
2022/10/23 09:39:41;;;;;;;2.57;1.67;;;;;;;20.92;68.11;100008.81;4939502;28;20429;-70
2022/10/23 09:42:23;;;;;;;2.17;1.37;;;;;;;20.92;67.94;100010.88;4955562;28;21057;-70
2022/10/23 09:44:49;;;;;;;3.30;1.93;;;;;;;20.91;68.02;100007.19;4942906;28;20181;-70
2022/10/23 09:47:19;;;;;;;2.80;1.50;;;;;;;20.89;68.05;100012.53;4941443;28;20929;-70
2022/10/23 09:49:49;;;;;;;3.40;1.90;;;;;;;20.91;67.87;100023.56;4956973;28;20789;-70
2022/10/23 09:52:15;;;;;;;2.53;1.40;;;;;;;20.92;67.86;100020.31;4938066;28;20452;-70
2022/10/23 09:54:43;;;;;;;1.90;1.30;;;;;;;20.93;67.74;100024.00;4955257;28;20434;-70
2022/10/23 09:57:36;;;;;;;2.57;1.40;;;;;;;20.92;67.98;100013.75;4957742;28;20421;-70
2022/10/23 10:00:29;;;;;;;2.20;1.30;;;;;;;20.92;68.33;100010.88;4949800;28;20525;-70
2022/10/23 10:02:59;;;;;;;2.07;1.40;;;;;;;20.92;68.07;100000.22;4956308;28;20418;-69
2022/10/23 10:05:32;;;;;;;2.10;1.20;;;;;;;20.93;68.13;99986.69;4930324;28;20813;-70
2022/10/23 10:08:04;;;;;;;3.73;1.40;;;;;;;20.92;67.66;99983.00;4936237;28;20478;-70
2022/10/23 10:10:38;;;;;;;5.20;1.23;;;;;;;20.94;67.87;99968.25;4952939;28;20462;-70
2022/10/23 10:13:32;;;;;;;1.93;1.07;;;;;;;20.93;67.67;99978.09;4950166;28;20430;-70
2022/10/23 10:16:09;;;;;;;2.87;1.50;;;;;;;20.94;67.91;99986.31;4950112;28;20477;-69
2022/10/23 10:19:11;;;;;;;2.10;1.30;;;;;;;20.94;67.66;99989.16;4954706;28;20414;-70
2022/10/23 10:21:44;;;;;;;1.90;1.30;;;;;;;20.93;67.84;99990.38;4927480;28;20458;-69
2022/10/23 10:24:20;;;;;;;2.40;1.33;;;;;;;20.93;68.08;99992.44;4930931;28;20427;-69
2022/10/23 10:27:36;;;;;;;1.87;1.07;;;;;;;20.94;68.18;99996.94;4936198;28;20489;-69
2022/10/23 10:30:17;;;;;;;3.13;1.60;;;;;;;20.97;67.75;99999.03;4936881;28;20512;-69
2022/10/23 10:33:02;;;;;;;2.57;1.53;;;;;;;20.96;67.82;99985.88;4938617;28;20823;-69
2022/10/23 10:35:45;;;;;;;2.50;1.37;;;;;;;20.92;67.97;99977.25;4959548;28;20418;-69
2022/10/23 10:38:20;;;;;;;2.30;1.43;;;;;;;20.94;68.65;99986.31;4932236;28;20476;-69
2022/10/23 10:41:03;;;;;;;2.00;1.20;;;;;;;20.94;68.42;99982.59;4962629;28;20420;-69
2022/10/23 10:43:34;;;;;;;6.23;1.50;;;;;;;20.94;67.84;99974.81;4960484;28;20420;-69
2022/10/23 10:46:11;;;;;;;2.67;1.50;;;;;;;20.94;67.58;99968.25;4963361;28;20426;-69
2022/10/23 10:48:58;;;;;;;1.80;1.27;;;;;;;20.94;68.31;99966.22;4938666;28;20984;-69
2022/10/23 10:51:38;;;;;;;2.23;1.40;;;;;;;20.94;68.24;99960.47;4937601;28;20477;-69
2022/10/23 10:54:25;;;;;;;2.13;1.50;;;;;;;20.94;68.12;99960.47;4933004;28;20963;-69
2022/10/23 10:56:50;;;;;;;4.33;1.53;;;;;;;20.93;67.85;99953.06;4960228;28;20414;-69
2022/10/23 10:59:19;;;;;;;2.00;1.20;;;;;;;20.94;68.04;99943.25;4938409;28;20436;-69
2022/10/23 11:01:52;;;;;;;3.00;1.30;;;;;;;20.95;68.02;99942.03;4949086;28;20191;-69
2022/10/23 11:04:24;;;;;;;2.10;1.20;;;;;;;20.95;67.71;99938.31;4957322;28;21264;-69
2022/10/23 11:06:50;;;;;;;2.63;1.50;;;;;;;20.96;68.22;99937.91;4958212;28;20473;-69
2022/10/23 11:09:25;;;;;;;3.07;1.50;;;;;;;20.97;67.74;99942.41;4927124;28;20839;-69
2022/10/23 11:11:51;;;;;;;2.70;1.50;;;;;;;20.97;67.77;99942.41;4947290;28;20306;-69
2022/10/23 11:14:17;;;;;;;2.40;1.50;;;;;;;20.97;68.18;99933.81;4955767;28;21006;-69
2022/10/23 11:17:12;;;;;;;2.67;1.50;;;;;;;20.99;67.86;99919.91;4931878;28;20187;-69
2022/10/23 11:19:49;;;;;;;1.80;1.10;;;;;;;21.01;67.82;99933.81;4931627;28;20716;-69
2022/10/23 11:22:36;;;;;;;2.23;1.27;;;;;;;20.98;67.82;99920.28;4951108;28;20432;-69
2022/10/23 11:25:08;;;;;;;2.43;1.23;;;;;;;20.99;67.83;99919.06;4954355;28;20430;-69
2022/10/23 11:27:42;;;;;;;2.67;1.30;;;;;;;20.98;68.29;99912.50;4921123;28;20438;-69
2022/10/23 11:30:17;;;;;;;3.97;1.77;;;;;;;20.98;67.96;99918.22;4954015;28;20565;-69
2022/10/23 11:33:34;;;;;;;2.00;1.30;;;;;;;20.99;67.86;99907.59;4924340;28;20417;-69
2022/10/23 11:36:19;;;;;;;2.20;1.30;;;;;;;20.96;67.75;99912.09;4936121;28;20457;-69
2022/10/23 11:38:46;;;;;;;2.17;1.20;;;;;;;20.96;67.74;99914.97;4920889;28;20482;-69
2022/10/23 11:41:16;;;;;;;3.10;1.80;;;;;;;20.97;68.02;99916.59;4938658;28;20422;-69